Longwood, FL (32750)

3:14 PM EDT on August 29, 2014 (GMT -0400)
Lake Wayman Heights | Change Station
CLOSE
Current Station
Personal Weather Station
Location: Longwood, FL
Elevation: 95 ft
Nearby Weather Stations

Elev 95 ft 28.70 °N, 81.34 °W | Updated 0 second ago

Overcast
Overcast
81.6 °F
Feels Like 90 °F
N
0.0
Wind Variable Wind from North
Gusts 0.0 mph

Today
High -- | Low -- °F
--% Chance of Precip.
Yesterday
High -- | Low -- °F
Precip. -- in
7:01 AM 7:50 PM
Waxing Crescent, 16% visible
Pressure 30.01 in
Visibility 10.0 miles
Clouds Mostly Cloudy 5500 ft
Mostly Cloudy 7000 ft
Mostly Cloudy 11000 ft
Heat Index 90 °F
Dew Point 78 °F
Humidity 88%
Rainfall 0.07 in
Snow Depth Not available.
UV 7 out of 12
Pollen 7.10 out of 12
Air Quality Not available.
Flu Activity Not available.
METAR KSFB 291853Z 18007KT 10SM TS BKN055 BKN070 BKN110 28/22 A3001 RMK AO2 PK WND 18026/1837 LTG DSNT SE AND S RAB38E48 TSB09 SLP162 P0000 T02780217

More Conditions Fewer Conditions

Pressure 30.01 in
Visibility 10.0 miles
Clouds Mostly Cloudy 5500 ft
Mostly Cloudy 7000 ft
Mostly Cloudy 11000 ft
Heat Index 90 °F
Dew Point 78 °F
Humidity 88%
Rainfall 0.07 in
Snow Depth Not available.
UV 7 out of 12
Pollen 7.10 out of 12
Air Quality Not available.
Flu Activity Not available.
METAR KSFB 291853Z 18007KT 10SM TS BKN055 BKN070 BKN110 28/22 A3001 RMK AO2 PK WND 18026/1837 LTG DSNT SE AND S RAB38E48 TSB09 SLP162 P0000 T02780217

More Conditions Fewer Conditions

Nowcast | as of 3:02 PM EDT on August 29, 2014

The East Coast sea breeze will continue to push inland and interact with other boundaries through the afternoon. Lightning storms will continue to develop over mainly the interior counties through the rest of the afternoon. With the atmosphere more unstable than past days...and a bit of dry air aloft a few of these storms could produce strong wind gusts over 45 mph. Deadly cloud to ground lightning is a threat for any of these storms. Additional details...including graphics are available online at: http://www.Srh.NOAA.Gov/mlb/blog.Php

×

10-Day Weather Forecast

Almanac

Astronomy

Aug. 29, 2014 Rise Set
Actual Time 7:01 AM EDT 7:50 PM EDT
Civil Twilight 6:37 AM EDT 8:14 PM EDT
Nautical Twilight 6:09 AM EDT 8:42 PM EDT
Astronomical Twilight 5:40 AM EDT 9:11 PM EDT
Moon 10:28 AM EDT 10:10 PM EDT
Length of Visible Light 13h 36m
Length of Day
12h 48m
Tomorrow will be 1m 37s shorter.
Waxing Crescent, 16% of the Moon is Illuminated
Today
Waxing Crescent
Sep 2
First Quarter
Sep 8
Full
Sep 15
Last Quarter
Sep 24
New

Today's Extremes

State Highs State Lows

Community

WunderPhotos

Upload Photos

1,748,314 photos uploaded!

Nearby

Snow Depth

Station Depth Elevation
No new snow has been reported.

Earthquake Activity

City Distance Mag. Time & Date
No recent earthquake activity has been reported nearby.
Minimum magnitude displayed is 2.5.

Coastal Water Temperatures

Place Temperature
No Stations Reporting

Nearby Weather Stations